createdAt,value
2023-02-25T00:00:18.171Z,94.32
2023-02-25T00:01:18.153Z,94.37
2023-02-25T00:02:18.260Z,93.75
2023-02-25T00:03:18.354Z,93.7
2023-02-25T00:04:17.834Z,93.32
2023-02-25T00:05:18.113Z,93.51
2023-02-25T00:06:17.793Z,93.04
2023-02-25T00:07:18.036Z,92.99
2023-02-25T00:08:17.751Z,92.85
2023-02-25T00:09:18.006Z,92.71
2023-02-25T00:10:17.709Z,92.71
2023-02-25T00:11:17.949Z,92.52
2023-02-25T00:12:17.923Z,92.57
2023-02-25T00:13:20.864Z,92.52
2023-02-25T00:14:17.650Z,92.14
2023-02-25T00:15:17.875Z,92.24
2023-02-25T00:16:17.944Z,92.33
2023-02-25T00:17:17.829Z,91.67
2023-02-25T00:18:17.820Z,91.77
2023-02-25T00:19:17.789Z,91.48
2023-02-25T00:20:17.791Z,91.96
2023-02-25T00:21:17.944Z,92.24
2023-02-25T00:22:17.740Z,92.33
2023-02-25T00:23:17.718Z,91.67
2023-02-25T00:24:19.483Z,91.58
2023-02-25T00:25:17.685Z,91.77
2023-02-25T00:26:17.425Z,92.05
2023-02-25T00:27:17.644Z,92.24
2023-02-25T00:28:17.624Z,92.05
2023-02-25T00:29:17.348Z,92.05
2023-02-25T00:30:17.593Z,92.24
2023-02-25T00:31:17.860Z,92.52
2023-02-25T00:32:18.033Z,93.18
2023-02-25T00:33:17.539Z,92.71
2023-02-25T00:34:17.509Z,92.9
2023-02-25T00:35:17.490Z,92.52
2023-02-25T00:36:17.478Z,92.8
2023-02-25T00:37:17.642Z,92.8
2023-02-25T00:38:18.516Z,92.61
2023-02-25T00:39:17.327Z,92.61
2023-02-25T00:40:17.397Z,92.61
2023-02-25T00:41:17.382Z,92.99
2023-02-25T00:42:17.361Z,92.9
2023-02-25T00:43:17.351Z,92.8
2023-02-25T00:44:18.134Z,92.99
2023-02-25T00:45:18.099Z,93.09
2023-02-25T00:46:17.906Z,93.37
2023-02-25T00:47:18.069Z,93.66
2023-02-25T00:48:17.785Z,93.99
2023-02-25T00:49:34.165Z,94.13
2023-02-25T00:50:17.756Z,93.75
2023-02-25T00:51:17.727Z,95.12
2023-02-25T00:52:17.980Z,96.73
2023-02-25T00:53:18.003Z,97.77
2023-02-25T00:54:17.932Z,97.77
2023-02-25T00:55:17.644Z,97.86
2023-02-25T00:56:17.634Z,98.43
2023-02-25T00:57:17.875Z,98.43
2023-02-25T00:58:17.842Z,98.33
2023-02-25T00:59:17.574Z,98.81
2023-02-25T01:00:17.819Z,99.57
2023-02-25T01:01:17.862Z,99.99
2023-02-25T01:02:17.777Z,99.99
2023-02-25T01:03:18.003Z,99.99
2023-02-25T01:04:17.899Z,99.99
2023-02-25T01:05:17.924Z,99.99
2023-02-25T01:06:17.765Z,99.99
2023-02-25T01:07:17.674Z,99.99
2023-02-25T01:08:17.664Z,99.99
2023-02-25T01:09:17.674Z,99.99
2023-02-25T01:10:17.401Z,99.99
2023-02-25T01:11:17.582Z,99.99
2023-02-25T01:12:17.574Z,99.99
2023-02-25T01:13:17.551Z,99.99
2023-02-25T01:14:17.530Z,99.99
2023-02-25T01:15:17.528Z,99.99
2023-02-25T01:16:17.420Z,99.99
2023-02-25T01:17:17.466Z,99.99
2023-02-25T01:18:17.208Z,99.99
2023-02-25T01:19:17.428Z,99.99
2023-02-25T01:20:17.418Z,99.99
2023-02-25T01:21:17.388Z,99.99
2023-02-25T01:22:17.368Z,99.99
2023-02-25T01:23:17.093Z,99.99
2023-02-25T01:24:17.353Z,99.99
2023-02-25T01:25:17.366Z,99.99
2023-02-25T01:26:17.031Z,99.99
2023-02-25T01:27:17.266Z,99.99
2023-02-25T01:28:17.254Z,99.99
2023-02-25T01:29:17.224Z,99.99
2023-02-25T01:30:16.965Z,99.99
2023-02-25T01:31:17.487Z,99.99
2023-02-25T01:32:17.509Z,99.99
2023-02-25T01:33:16.897Z,99.99
2023-02-25T01:34:16.878Z,99.99
2023-02-25T01:35:17.125Z,99.99
2023-02-25T01:36:16.834Z,99.99
2023-02-25T01:37:17.078Z,99.99
2023-02-25T01:38:17.061Z,99.99
2023-02-25T01:39:17.582Z,99.99
2023-02-25T01:40:17.549Z,99.99
2023-02-25T01:41:17.585Z,99.99
2023-02-25T01:42:17.549Z,99.99
2023-02-25T01:43:17.237Z,99.99
2023-02-25T01:44:17.245Z,99.99
2023-02-25T01:45:17.462Z,99.99
2023-02-25T01:46:17.514Z,99.99
2023-02-25T01:47:17.413Z,99.99
2023-02-25T01:48:17.416Z,99.99
2023-02-25T01:49:17.373Z,99.99
2023-02-25T01:50:17.362Z,99.99
2023-02-25T01:51:17.089Z,99.99
2023-02-25T01:52:17.067Z,99.99
2023-02-25T01:53:17.042Z,99.99
2023-02-25T01:54:17.289Z,99.99
2023-02-25T01:55:17.002Z,99.99
2023-02-25T01:56:17.268Z,99.99
2023-02-25T01:57:17.283Z,99.99
2023-02-25T01:58:17.212Z,99.99
2023-02-25T01:59:17.179Z,99.99
2023-02-25T02:00:17.168Z,99.99
2023-02-25T02:01:17.377Z,99.99
2023-02-25T02:02:17.034Z,99.99
2023-02-25T02:03:16.888Z,99.99
2023-02-25T02:04:17.128Z,99.99
2023-02-25T02:05:16.857Z,99.99
2023-02-25T02:06:17.081Z,99.99
2023-02-25T02:07:17.088Z,99.99
2023-02-25T02:08:17.039Z,99.99
2023-02-25T02:09:17.027Z,99.99
2023-02-25T02:10:16.997Z,99.99
2023-02-25T02:11:16.744Z,99.99
2023-02-25T02:12:16.704Z,99.99
2023-02-25T02:13:16.996Z,99.99
2023-02-25T02:14:16.668Z,99.99
2023-02-25T02:15:16.901Z,99.99
2023-02-25T02:16:17.089Z,99.99
2023-02-25T02:17:16.902Z,99.99
2023-02-25T02:18:16.842Z,99.99
2023-02-25T02:19:16.831Z,99.99
2023-02-25T02:20:16.864Z,99.99
2023-02-25T02:21:16.535Z,99.99
2023-02-25T02:22:16.819Z,99.99
2023-02-25T02:23:16.498Z,99.99
2023-02-25T02:24:16.749Z,99.99
2023-02-25T02:25:16.726Z,99.99
2023-02-25T02:26:16.691Z,99.99
2023-02-25T02:27:16.678Z,99.99
2023-02-25T02:28:16.655Z,99.99
2023-02-25T02:29:16.684Z,99.99
2023-02-25T02:30:16.651Z,99.99
2023-02-25T02:31:16.852Z,99.99
2023-02-25T02:32:16.803Z,99.99
2023-02-25T02:33:16.301Z,99.99
2023-02-25T02:34:16.552Z,99.99
2023-02-25T02:35:16.274Z,99.99
2023-02-25T02:36:16.246Z,99.99
2023-02-25T02:37:16.479Z,99.99
2023-02-25T02:38:16.196Z,99.99
2023-02-25T02:39:16.186Z,99.99
2023-02-25T02:40:16.425Z,99.99
2023-02-25T02:41:16.144Z,99.99
2023-02-25T02:42:16.376Z,99.99
2023-02-25T02:43:16.366Z,99.99
2023-02-25T02:44:16.338Z,99.99
2023-02-25T02:45:16.368Z,99.99
2023-02-25T02:46:16.265Z,99.99
2023-02-25T02:47:16.031Z,99.99
2023-02-25T02:48:16.268Z,99.99
2023-02-25T02:49:16.002Z,99.99
2023-02-25T02:50:16.219Z,99.99
2023-02-25T02:51:16.200Z,99.99
2023-02-25T02:52:15.921Z,99.99
2023-02-25T02:53:16.170Z,99.99
2023-02-25T02:54:16.139Z,99.99
2023-02-25T02:55:16.132Z,99.99
2023-02-25T02:56:16.108Z,99.99
2023-02-25T02:57:16.106Z,99.99
2023-02-25T02:58:15.821Z,99.99
2023-02-25T02:59:15.872Z,99.99
2023-02-25T03:00:16.065Z,99.99
2023-02-25T03:01:16.201Z,99.99
2023-02-25T03:02:16.408Z,99.99
2023-02-25T03:03:16.640Z,99.99
2023-02-25T03:04:16.757Z,99.99
2023-02-25T03:05:16.588Z,99.99
2023-02-25T03:06:16.321Z,99.99
2023-02-25T03:07:16.298Z,99.99
2023-02-25T03:08:16.539Z,99.99
2023-02-25T03:09:16.524Z,99.99
2023-02-25T03:10:16.510Z,99.99
2023-02-25T03:11:16.215Z,99.99
2023-02-25T03:12:16.198Z,99.99
2023-02-25T03:13:16.430Z,99.99
2023-02-25T03:14:16.411Z,99.99
2023-02-25T03:15:16.142Z,99.99
2023-02-25T03:16:16.441Z,99.99
2023-02-25T03:17:16.428Z,99.99
2023-02-25T03:18:16.409Z,99.99
2023-02-25T03:19:16.326Z,99.99
2023-02-25T03:20:16.314Z,99.99
2023-02-25T03:21:16.274Z,99.99
2023-02-25T03:22:16.302Z,99.99
2023-02-25T03:23:16.242Z,99.99
2023-02-25T03:24:16.222Z,99.99
2023-02-25T03:25:16.207Z,99.99
2023-02-25T03:26:16.199Z,99.99
2023-02-25T03:27:15.907Z,99.99
2023-02-25T03:28:16.152Z,99.99
2023-02-25T03:29:16.128Z,99.99
2023-02-25T03:30:16.112Z,99.99
2023-02-25T03:31:15.864Z,99.99
2023-02-25T03:32:16.201Z,99.99
2023-02-25T03:49:37.783Z,99.99
2023-02-25T03:50:37.449Z,99.99
2023-02-25T03:51:37.678Z,99.99
2023-02-25T03:52:37.662Z,99.99
2023-02-25T03:53:37.724Z,99.99
2023-02-25T03:54:37.626Z,99.99
2023-02-25T03:55:37.334Z,99.99
2023-02-25T03:56:37.311Z,99.99
2023-02-25T03:57:37.305Z,99.99
2023-02-25T03:58:37.539Z,99.99
2023-02-25T03:59:37.523Z,99.99
2023-02-25T04:00:37.488Z,99.99
2023-02-25T04:01:37.469Z,99.99
2023-02-25T04:02:37.374Z,99.99
2023-02-25T04:03:37.179Z,99.99
2023-02-25T04:04:37.558Z,99.99
2023-02-25T04:05:37.459Z,99.99
2023-02-25T04:06:37.130Z,99.99
2023-02-25T04:07:37.352Z,99.99
2023-02-25T04:08:37.085Z,99.99
2023-02-25T04:09:37.319Z,99.99
2023-02-25T04:10:37.030Z,99.99
2023-02-25T04:11:37.281Z,99.99
2023-02-25T04:12:37.013Z,99.99
2023-02-25T04:13:37.240Z,99.99
2023-02-25T04:14:37.208Z,99.99
2023-02-25T04:15:37.319Z,99.99
2023-02-25T04:16:37.181Z,99.99
2023-02-25T04:17:37.196Z,99.99
2023-02-25T04:18:37.153Z,99.99
2023-02-25T04:19:37.128Z,99.99
2023-02-25T04:20:36.859Z,99.99
2023-02-25T04:21:37.135Z,99.99
2023-02-25T04:22:36.888Z,99.99
2023-02-25T04:23:37.055Z,99.99
2023-02-25T04:24:37.033Z,99.99
2023-02-25T04:25:37.018Z,99.99
2023-02-25T04:26:37.018Z,99.99
2023-02-25T04:27:36.993Z,99.99
2023-02-25T04:28:36.768Z,99.99
2023-02-25T04:29:36.959Z,99.99
2023-02-25T04:30:37.183Z,99.99
2023-02-25T04:31:37.220Z,99.99
2023-02-25T04:32:37.078Z,99.99
2023-02-25T04:33:36.923Z,99.99
2023-02-25T04:34:36.847Z,99.99
2023-02-25T04:35:36.862Z,99.99
2023-02-25T04:36:36.934Z,99.99
2023-02-25T04:37:36.832Z,99.99
2023-02-25T04:38:36.771Z,99.99
2023-02-25T04:39:36.561Z,99.99
2023-02-25T04:40:36.714Z,99.99
2023-02-25T04:41:36.470Z,99.99
2023-02-25T04:42:36.427Z,99.99
2023-02-25T04:43:36.664Z,99.99
2023-02-25T04:44:36.661Z,99.99
2023-02-25T04:45:36.625Z,99.99
2023-02-25T04:46:36.833Z,99.99
2023-02-25T04:47:36.329Z,99.99
2023-02-25T04:48:36.566Z,99.99
2023-02-25T04:49:36.544Z,99.99
2023-02-25T04:50:36.530Z,99.99
2023-02-25T04:51:36.520Z,99.99
2023-02-25T04:52:36.502Z,99.99
2023-02-25T04:53:36.542Z,99.99
2023-02-25T04:54:36.450Z,99.99
2023-02-25T04:55:36.185Z,99.99
2023-02-25T04:56:36.153Z,99.99
2023-02-25T04:57:36.134Z,99.99
2023-02-25T04:58:36.412Z,99.99
2023-02-25T04:59:36.362Z,99.99
2023-02-25T05:00:36.346Z,99.99
2023-02-25T05:01:36.409Z,99.99
2023-02-25T05:02:36.301Z,99.99
2023-02-25T05:03:36.027Z,99.99
2023-02-25T05:04:36.166Z,99.99
2023-02-25T05:05:36.238Z,99.99
2023-02-25T05:06:36.223Z,99.99
2023-02-25T05:07:36.213Z,99.99
2023-02-25T05:08:35.930Z,99.99
2023-02-25T05:09:36.237Z,99.99
2023-02-25T05:10:36.145Z,99.99
2023-02-25T05:11:36.164Z,99.99
2023-02-25T05:12:36.111Z,99.99
2023-02-25T05:13:36.093Z,99.99
2023-02-25T05:14:36.068Z,99.99
2023-02-25T05:15:36.054Z,99.99
2023-02-25T05:16:36.209Z,99.99
2023-02-25T05:17:36.110Z,99.99
2023-02-25T05:18:35.996Z,99.99
2023-02-25T05:19:35.725Z,99.99
2023-02-25T05:20:36.054Z,99.99
2023-02-25T05:21:36.004Z,99.99
2023-02-25T05:22:35.674Z,99.99
2023-02-25T05:23:35.894Z,99.99
2023-02-25T05:24:35.881Z,99.99
2023-02-25T05:25:35.908Z,99.99
2023-02-25T05:26:35.837Z,99.99
2023-02-25T05:27:35.818Z,99.99
2023-02-25T05:28:35.540Z,99.99
2023-02-25T05:29:35.906Z,99.99
2023-02-25T05:30:35.780Z,99.99
2023-02-25T05:31:36.029Z,99.99
2023-02-25T05:32:36.047Z,99.99
2023-02-25T05:33:35.458Z,99.99
2023-02-25T05:34:35.702Z,99.99
2023-02-25T05:35:35.676Z,99.99
2023-02-25T05:36:35.641Z,99.99
2023-02-25T05:37:35.635Z,99.99
2023-02-25T05:38:35.615Z,99.99
2023-02-25T05:39:35.336Z,99.99
2023-02-25T05:40:35.562Z,99.99
2023-02-25T05:41:35.620Z,99.99
2023-02-25T05:42:35.531Z,99.99
2023-02-25T05:43:36.357Z,99.99
2023-02-25T05:44:36.057Z,99.99
2023-02-25T05:45:36.286Z,99.99
2023-02-25T05:46:36.482Z,99.99
2023-02-25T05:47:36.281Z,99.99
2023-02-25T05:48:36.232Z,99.99
2023-02-25T05:49:36.218Z,99.99
2023-02-25T05:50:36.196Z,99.99
2023-02-25T05:51:36.179Z,99.99
2023-02-25T05:52:36.181Z,99.99
2023-02-25T05:53:35.886Z,99.99
2023-02-25T05:54:35.856Z,99.99
2023-02-25T05:55:36.094Z,99.99
2023-02-25T05:56:36.073Z,99.99
2023-02-25T05:57:36.112Z,99.99
2023-02-25T05:58:36.053Z,99.99
2023-02-25T05:59:36.024Z,99.99
2023-02-25T06:00:36.001Z,99.99
2023-02-25T06:01:35.725Z,99.99
2023-02-25T06:02:35.967Z,99.99
2023-02-25T06:03:35.992Z,99.99
2023-02-25T06:04:35.932Z,99.99
2023-02-25T06:05:35.912Z,99.99
2023-02-25T06:06:35.631Z,99.99
2023-02-25T06:07:35.603Z,99.99
2023-02-25T06:08:35.860Z,99.99
2023-02-25T06:09:35.828Z,99.99
2023-02-25T06:10:35.800Z,99.99
2023-02-25T06:11:35.785Z,99.99
2023-02-25T06:12:35.770Z,99.99
2023-02-25T06:13:35.810Z,99.99
2023-02-25T06:14:35.728Z,99.99
2023-02-25T06:15:35.452Z,99.99
2023-02-25T06:16:35.578Z,99.99
2023-02-25T06:17:35.674Z,99.99
2023-02-25T06:18:35.648Z,99.99
2023-02-25T06:19:35.715Z,99.99
2023-02-25T06:20:35.628Z,99.99
2023-02-25T06:21:35.332Z,99.99
2023-02-25T06:22:35.566Z,99.99
2023-02-25T06:23:35.554Z,99.99
2023-02-25T06:24:35.272Z,99.99
2023-02-25T06:25:35.526Z,99.99
2023-02-25T06:26:35.570Z,99.99
2023-02-25T06:27:35.474Z,99.99
2023-02-25T06:28:35.457Z,99.99
2023-02-25T06:29:35.517Z,99.99
2023-02-25T06:30:35.677Z,99.99
2023-02-25T06:31:35.511Z,99.99
2023-02-25T06:32:35.692Z,99.99
2023-02-25T06:33:35.100Z,99.99
2023-02-25T06:34:35.092Z,99.99
2023-02-25T06:35:35.065Z,99.99
2023-02-25T06:36:35.316Z,99.99
2023-02-25T06:37:35.281Z,99.99
2023-02-25T06:38:35.276Z,99.99
2023-02-25T06:39:35.240Z,99.99
2023-02-25T06:40:35.232Z,99.99
2023-02-25T06:41:35.207Z,99.99
2023-02-25T06:42:35.205Z,99.99
2023-02-25T06:43:35.167Z,99.99
2023-02-25T06:44:34.894Z,99.99
2023-02-25T06:45:35.187Z,99.99
2023-02-25T06:46:34.894Z,99.99
2023-02-25T06:47:35.086Z,99.99
2023-02-25T06:48:34.860Z,99.99
2023-02-25T06:49:35.057Z,99.99
2023-02-25T06:50:35.033Z,99.99
2023-02-25T06:51:35.011Z,99.99
2023-02-25T06:52:35.001Z,99.99
2023-02-25T06:53:34.974Z,99.99
2023-02-25T06:54:34.959Z,99.99
2023-02-25T06:55:34.953Z,99.99
2023-02-25T06:56:34.920Z,99.99
2023-02-25T06:57:34.903Z,99.99
2023-02-25T06:58:34.883Z,99.99
2023-02-25T06:59:34.868Z,99.99
2023-02-25T07:00:34.592Z,99.99
2023-02-25T07:01:35.128Z,99.99
2023-02-25T07:02:34.545Z,99.99
2023-02-25T07:03:34.790Z,99.99
2023-02-25T07:04:34.886Z,99.99
2023-02-25T07:05:34.760Z,99.99
2023-02-25T07:06:34.734Z,99.99
2023-02-25T07:07:34.446Z,99.99
2023-02-25T07:08:34.692Z,99.99
2023-02-25T07:09:34.672Z,99.99
2023-02-25T07:10:34.653Z,99.99
2023-02-25T07:11:34.375Z,99.99
2023-02-25T07:12:34.369Z,99.99
2023-02-25T07:13:34.611Z,99.99
2023-02-25T07:14:34.569Z,99.99
2023-02-25T07:15:34.621Z,99.99
2023-02-25T07:16:34.532Z,99.99
2023-02-25T07:17:34.572Z,99.99
2023-02-25T07:18:34.241Z,99.99
2023-02-25T07:19:34.478Z,99.99
2023-02-25T07:20:34.461Z,99.99
2023-02-25T07:21:34.437Z,99.99
2023-02-25T07:22:34.418Z,99.99
2023-02-25T07:23:34.401Z,99.99
2023-02-25T07:24:34.398Z,99.99
2023-02-25T07:25:34.489Z,99.99
2023-02-25T07:26:34.337Z,99.99
2023-02-25T07:27:34.066Z,99.99
2023-02-25T07:28:34.079Z,99.99
2023-02-25T07:29:34.293Z,99.99
2023-02-25T07:30:34.291Z,99.99
2023-02-25T07:31:34.610Z,99.99
2023-02-25T07:32:34.456Z,99.99
2023-02-25T07:33:34.281Z,99.99
2023-02-25T07:34:34.186Z,99.99
2023-02-25T07:35:33.919Z,99.99
2023-02-25T07:36:34.147Z,99.99
2023-02-25T07:37:34.138Z,99.99
2023-02-25T07:38:34.129Z,99.99
2023-02-25T07:39:33.841Z,99.99
2023-02-25T07:40:33.831Z,99.99
2023-02-25T07:41:33.814Z,99.99
2023-02-25T07:42:33.776Z,99.99
2023-02-25T07:43:34.038Z,99.99
2023-02-25T07:44:34.011Z,99.99
2023-02-25T07:45:34.028Z,99.99
2023-02-25T07:46:34.146Z,99.99
2023-02-25T07:47:33.944Z,99.99
2023-02-25T07:48:33.927Z,99.99
2023-02-25T07:49:33.987Z,99.99
2023-02-25T07:50:33.903Z,99.99
2023-02-25T07:51:33.867Z,99.99
2023-02-25T07:52:33.589Z,99.99
2023-02-25T07:53:33.829Z,99.99
2023-02-25T07:54:33.552Z,99.99
2023-02-25T07:55:33.792Z,99.99
2023-02-25T07:56:33.778Z,99.99
2023-02-25T07:57:33.749Z,99.99
2023-02-25T07:58:33.755Z,99.99
2023-02-25T07:59:33.733Z,99.99
2023-02-25T08:00:33.447Z,99.99
2023-02-25T08:01:33.420Z,99.99
2023-02-25T08:02:33.548Z,99.99
2023-02-25T08:03:33.644Z,99.99
2023-02-25T08:04:33.764Z,99.99
2023-02-25T08:05:33.658Z,99.99
2023-02-25T08:06:33.321Z,99.99
2023-02-25T08:07:33.318Z,99.99
2023-02-25T08:08:33.537Z,99.99
2023-02-25T08:09:33.515Z,99.99
2023-02-25T08:10:33.500Z,99.99
2023-02-25T08:11:33.482Z,99.99
2023-02-25T08:12:33.457Z,99.99
2023-02-25T08:13:33.450Z,99.99
2023-02-25T08:14:33.428Z,99.99
2023-02-25T08:15:33.170Z,99.99
2023-02-25T08:16:33.394Z,99.99
2023-02-25T08:17:33.360Z,99.99
2023-02-25T08:18:33.348Z,99.99
2023-02-25T08:19:33.323Z,99.99
2023-02-25T08:20:33.052Z,99.99
2023-02-25T08:21:33.367Z,99.99
2023-02-25T08:22:33.269Z,99.99
2023-02-25T08:23:33.029Z,99.99
2023-02-25T08:24:33.002Z,99.99
2023-02-25T08:25:33.212Z,99.99
2023-02-25T08:26:32.939Z,99.99
2023-02-25T08:27:33.186Z,99.99
2023-02-25T08:28:37.286Z,99.99
2023-02-25T08:29:33.140Z,99.99
2023-02-25T08:30:33.239Z,99.99
2023-02-25T08:31:33.094Z,99.99
2023-02-25T08:32:33.350Z,99.99
2023-02-25T08:33:33.061Z,99.99
2023-02-25T08:34:33.052Z,99.99
2023-02-25T08:35:33.021Z,99.99
2023-02-25T08:36:33.037Z,99.99
2023-02-25T08:37:33.032Z,99.99
2023-02-25T08:38:32.713Z,99.99
2023-02-25T08:39:32.940Z,99.99
2023-02-25T08:40:32.672Z,99.99
2023-02-25T08:41:32.910Z,99.99
2023-02-25T08:42:32.890Z,99.99
2023-02-25T08:43:32.872Z,99.99
2023-02-25T08:44:32.848Z,99.99
2023-02-25T08:45:32.585Z,99.99
2023-02-25T08:46:32.985Z,99.99
2023-02-25T08:47:32.787Z,99.99
2023-02-25T08:48:33.021Z,99.99
2023-02-25T08:49:32.995Z,99.99
2023-02-25T08:50:32.980Z,99.99
2023-02-25T08:51:32.954Z,99.99
2023-02-25T08:52:32.940Z,99.99
2023-02-25T08:53:32.962Z,99.99
2023-02-25T08:54:32.915Z,99.99
2023-02-25T08:55:32.882Z,99.99
2023-02-25T08:56:32.865Z,99.99
2023-02-25T08:57:32.585Z,99.99
2023-02-25T08:58:32.845Z,99.99
2023-02-25T08:59:32.541Z,99.99
2023-02-25T09:00:32.884Z,99.99
2023-02-25T09:01:32.761Z,99.99
2023-02-25T09:02:32.737Z,99.99
2023-02-25T09:03:32.720Z,99.99
2023-02-25T09:04:32.604Z,99.99
2023-02-25T09:05:32.704Z,99.99
2023-02-25T09:06:32.659Z,99.99
2023-02-25T09:07:32.646Z,99.99
2023-02-25T09:08:32.623Z,99.99
2023-02-25T09:09:32.656Z,99.99
2023-02-25T09:10:50.084Z,99.99
2023-02-25T09:11:32.572Z,99.99
2023-02-25T09:12:32.298Z,99.99
2023-02-25T09:13:32.535Z,99.99
2023-02-25T09:14:32.280Z,99.99
2023-02-25T09:15:32.492Z,99.99
2023-02-25T09:16:32.400Z,99.99
2023-02-25T09:17:32.450Z,99.99
2023-02-25T09:18:32.458Z,99.99
2023-02-25T09:19:32.419Z,99.99
2023-02-25T09:20:32.394Z,99.99
2023-02-25T09:21:32.377Z,99.99
2023-02-25T09:22:32.357Z,99.99
2023-02-25T09:23:32.337Z,99.99
2023-02-25T09:24:32.321Z,99.99
2023-02-25T09:25:32.342Z,99.99
2023-02-25T09:26:32.021Z,99.99
2023-02-25T09:27:32.260Z,99.99
2023-02-25T09:28:32.241Z,99.99
2023-02-25T09:29:32.221Z,99.99
2023-02-25T09:30:32.200Z,99.99
2023-02-25T09:31:32.505Z,99.99
2023-02-25T09:32:32.463Z,99.99
2023-02-25T09:33:32.143Z,99.99
2023-02-25T09:34:32.138Z,99.99
2023-02-25T09:35:32.121Z,99.99
2023-02-25T09:36:32.088Z,99.99
2023-02-25T09:37:32.081Z,99.99
2023-02-25T09:38:32.048Z,99.99
2023-02-25T09:39:32.034Z,99.99
2023-02-25T09:40:32.006Z,99.99
2023-02-25T09:41:32.048Z,99.99
2023-02-25T09:42:31.971Z,99.99
2023-02-25T09:43:31.955Z,99.99
2023-02-25T09:44:31.954Z,99.99
2023-02-25T09:45:32.183Z,99.99
2023-02-25T09:46:31.903Z,99.99
2023-02-25T09:47:32.017Z,99.99
2023-02-25T09:48:31.870Z,99.99
2023-02-25T09:49:31.836Z,99.99
2023-02-25T09:50:31.824Z,99.99
2023-02-25T09:51:31.797Z,99.99
2023-02-25T09:52:31.786Z,99.99
2023-02-25T09:53:31.753Z,99.99
2023-02-25T09:54:31.482Z,99.99
2023-02-25T09:55:31.471Z,99.99
2023-02-25T09:56:31.709Z,99.99
2023-02-25T09:57:31.729Z,99.99
2023-02-25T09:58:31.661Z,99.99
2023-02-25T09:59:31.646Z,99.99
2023-02-25T10:00:31.374Z,99.99
2023-02-25T10:01:31.610Z,99.99
2023-02-25T10:02:31.885Z,99.99
2023-02-25T10:03:31.828Z,99.99
2023-02-25T10:04:31.558Z,99.99
2023-02-25T10:05:31.526Z,99.99
2023-02-25T10:06:31.513Z,99.99
2023-02-25T10:07:31.492Z,99.99
2023-02-25T10:08:31.520Z,99.99
2023-02-25T10:09:31.467Z,99.99
2023-02-25T10:10:31.434Z,99.99
2023-02-25T10:11:31.417Z,99.99
2023-02-25T10:12:31.408Z,99.99
2023-02-25T10:13:31.432Z,99.99
2023-02-25T10:14:31.376Z,99.99
2023-02-25T10:15:31.084Z,99.99
2023-02-25T10:16:31.236Z,99.99
2023-02-25T10:17:31.299Z,99.99
2023-02-25T10:18:31.034Z,99.99
2023-02-25T10:19:31.272Z,99.99
2023-02-25T10:20:31.247Z,99.99
2023-02-25T10:21:30.975Z,99.99
2023-02-25T10:22:31.207Z,99.99
2023-02-25T10:23:30.950Z,99.99
2023-02-25T10:24:31.168Z,99.99
2023-02-25T10:25:30.896Z,99.99
2023-02-25T10:26:31.132Z,99.99
2023-02-25T10:27:33.542Z,99.99
2023-02-25T10:28:31.092Z,99.99
2023-02-25T10:29:31.122Z,99.99
2023-02-25T10:30:31.237Z,99.99
2023-02-25T10:31:31.465Z,99.99
2023-02-25T10:32:31.168Z,99.99
2023-02-25T10:33:31.004Z,99.99
2023-02-25T10:34:30.983Z,99.99
2023-02-25T10:35:30.967Z,99.99
2023-02-25T10:36:30.953Z,99.99
2023-02-25T10:37:30.664Z,99.99
2023-02-25T10:38:30.901Z,99.99
2023-02-25T10:39:30.974Z,99.99
2023-02-25T10:40:30.865Z,99.99
2023-02-25T10:41:30.596Z,99.99
2023-02-25T10:42:30.823Z,99.99
2023-02-25T10:43:30.597Z,99.99
2023-02-25T10:44:30.785Z,99.99
2023-02-25T10:45:30.820Z,99.99
2023-02-25T10:46:30.909Z,99.99
2023-02-25T10:47:30.480Z,99.99
2023-02-25T10:48:30.716Z,99.99
2023-02-25T10:49:30.532Z,99.99
2023-02-25T10:50:46.497Z,99.99
2023-02-25T10:51:30.705Z,99.99
2023-02-25T10:52:30.652Z,99.99
2023-02-25T10:53:30.620Z,99.99
2023-02-25T10:54:30.603Z,99.99
2023-02-25T10:55:30.587Z,99.99
2023-02-25T10:56:30.320Z,99.99
2023-02-25T10:57:30.759Z,99.99
2023-02-25T10:58:30.534Z,99.99
2023-02-25T10:59:33.521Z,99.99
2023-02-25T11:00:30.234Z,99.99
2023-02-25T11:01:30.618Z,99.99
2023-02-25T11:02:30.717Z,99.99
2023-02-25T11:03:30.181Z,99.99
2023-02-25T11:04:30.403Z,99.99
2023-02-25T11:05:30.400Z,99.99
2023-02-25T11:06:30.145Z,99.99
2023-02-25T11:07:30.370Z,99.99
2023-02-25T11:08:30.324Z,99.99
2023-02-25T11:09:30.342Z,99.99
2023-02-25T11:10:30.286Z,99.99
2023-02-25T11:11:33.557Z,99.99
2023-02-25T11:12:30.245Z,99.99
2023-02-25T11:13:30.248Z,99.99
2023-02-25T11:14:30.226Z,99.99
2023-02-25T11:15:46.748Z,99.99
2023-02-25T11:16:30.116Z,99.99
2023-02-25T11:17:30.206Z,99.99
2023-02-25T11:18:30.140Z,99.99
2023-02-25T11:19:29.860Z,99.99
2023-02-25T11:20:30.092Z,99.99
2023-02-25T11:21:30.079Z,99.99
2023-02-25T11:22:30.054Z,99.99
2023-02-25T11:23:30.659Z,99.99
2023-02-25T11:24:30.021Z,99.99
2023-02-25T11:25:29.740Z,99.99
2023-02-25T11:26:29.989Z,99.99
2023-02-25T11:27:29.814Z,99.99
2023-02-25T11:28:29.940Z,99.99
2023-02-25T11:29:29.658Z,99.99
2023-02-25T11:30:30.013Z,99.99
2023-02-25T11:31:30.864Z,99.99
2023-02-25T11:32:30.398Z,99.99
2023-02-25T11:33:29.881Z,99.99
2023-02-25T11:34:29.824Z,99.99
2023-02-25T11:35:29.867Z,99.99
2023-02-25T11:36:29.784Z,99.99
2023-02-25T11:37:29.500Z,99.99
2023-02-25T11:38:29.486Z,99.99
2023-02-25T11:39:29.719Z,99.99
2023-02-25T11:40:29.450Z,99.99
2023-02-25T11:41:29.673Z,99.99
2023-02-25T11:42:29.399Z,99.99
2023-02-25T11:43:29.653Z,99.99
2023-02-25T11:44:29.637Z,99.99
2023-02-25T11:45:29.340Z,99.99
2023-02-25T11:46:30.089Z,99.99
2023-02-25T11:47:29.314Z,99.99
2023-02-25T11:48:29.292Z,99.99
2023-02-25T11:49:29.583Z,99.99
2023-02-25T11:50:29.520Z,99.99
2023-02-25T11:51:29.468Z,99.99
2023-02-25T11:52:29.457Z,99.99
2023-02-25T11:53:29.508Z,99.99
2023-02-25T11:54:29.157Z,99.99
2023-02-25T11:55:29.397Z,99.99
2023-02-25T11:56:29.133Z,99.99
2023-02-25T11:57:29.096Z,99.99
2023-02-25T11:58:29.335Z,99.99
2023-02-25T11:59:29.335Z,99.99
2023-02-25T12:00:29.301Z,99.99
2023-02-25T12:01:29.269Z,99.99
2023-02-25T12:02:29.103Z,99.99
2023-02-25T12:03:28.981Z,99.99
2023-02-25T12:04:28.972Z,99.99
2023-02-25T12:05:29.388Z,99.99
2023-02-25T12:06:28.919Z,99.99
2023-02-25T12:07:29.152Z,99.99
2023-02-25T12:08:29.139Z,99.99
2023-02-25T12:09:28.860Z,99.99
2023-02-25T12:10:29.100Z,99.99
2023-02-25T12:11:29.083Z,99.99
2023-02-25T12:12:28.801Z,99.99
2023-02-25T12:13:29.133Z,99.99
2023-02-25T12:14:29.017Z,99.99
2023-02-25T12:15:29.000Z,99.99
2023-02-25T12:16:29.512Z,99.99
2023-02-25T12:17:29.019Z,99.99
2023-02-25T12:18:28.962Z,99.99
2023-02-25T12:19:28.719Z,99.99
2023-02-25T12:20:28.904Z,99.99
2023-02-25T12:21:29.077Z,99.99
2023-02-25T12:22:28.868Z,99.99
2023-02-25T12:23:28.840Z,99.99
2023-02-25T12:24:28.849Z,99.99
2023-02-25T12:25:28.809Z,99.99
2023-02-25T12:26:28.791Z,99.99
2023-02-25T12:27:28.767Z,99.99
2023-02-25T12:28:28.502Z,99.99
2023-02-25T12:29:28.730Z,99.99
2023-02-25T12:30:28.794Z,99.99
2023-02-25T12:31:29.456Z,99.99
2023-02-25T12:32:28.737Z,99.99
2023-02-25T12:33:28.527Z,99.99
2023-02-25T12:34:28.748Z,99.99
2023-02-25T12:35:28.749Z,99.99
2023-02-25T12:36:28.709Z,99.99
2023-02-25T12:37:28.773Z,99.99
2023-02-25T12:38:28.672Z,99.99
2023-02-25T12:39:28.654Z,99.99
2023-02-25T12:40:28.635Z,99.99
2023-02-25T12:41:28.819Z,99.99
2023-02-25T12:42:28.605Z,99.99
2023-02-25T12:43:28.585Z,99.99
2023-02-25T12:44:28.552Z,99.99
2023-02-25T12:45:28.568Z,99.99
2023-02-25T12:46:28.529Z,99.99
2023-02-25T12:47:28.520Z,99.99
2023-02-25T12:48:28.506Z,99.99
2023-02-25T12:49:28.475Z,99.99
2023-02-25T12:50:28.187Z,99.99
2023-02-25T12:51:28.573Z,99.99
2023-02-25T12:52:28.406Z,99.99
2023-02-25T12:53:28.445Z,99.99
2023-02-25T12:54:28.392Z,99.99
2023-02-25T12:55:28.173Z,99.99
2023-02-25T12:56:28.327Z,99.99
2023-02-25T12:57:28.329Z,99.99
2023-02-25T12:58:28.061Z,99.99
2023-02-25T12:59:28.019Z,99.99
2023-02-25T13:00:28.258Z,99.99
2023-02-25T13:01:28.660Z,99.99
2023-02-25T13:02:27.972Z,99.99
2023-02-25T13:03:28.137Z,99.99
2023-02-25T13:04:28.263Z,99.99
2023-02-25T13:05:27.920Z,99.99
2023-02-25T13:06:28.162Z,99.99
2023-02-25T13:07:28.125Z,99.99
2023-02-25T13:08:27.853Z,99.99